Time;durP1;ratioP1;P1;durP2;ratioP2;P2;SDS_P1;SDS_P2;PMS_P1;PMS_P2;Temp;Humidity;BMP_temperature;BMP_pressure;BME280_temperature;BME280_humidity;BME280_pressure;Samples;Min_cycle;Max_cycle;Signal;HPM_P1;HPM_P2
2022/07/21 04:03:21;;;;;;;12.40;10.40;;;19.70;99.90;;;;;;6103240;22;20432;-69
2022/07/21 04:05:47;;;;;;;14.87;12.00;;;19.70;99.90;;;;;;5033011;28;20769;-70
2022/07/21 04:08:13;;;;;;;14.33;9.03;;;19.70;99.90;;;;;;5033809;28;20256;-71
2022/07/21 04:10:41;;;;;;;13.33;8.77;;;19.70;99.90;;;;;;5033849;28;20171;-69
2022/07/21 04:13:11;;;;;;;10.23;8.43;;;19.70;99.90;;;;;;5033689;28;20413;-70
2022/07/21 04:15:37;;;;;;;12.50;10.37;;;19.70;99.90;;;;;;5033852;28;20469;-71
2022/07/21 04:18:04;;;;;;;11.60;10.00;;;19.70;99.90;;;;;;5033899;28;20772;-70
2022/07/21 04:20:30;;;;;;;11.47;9.60;;;19.70;99.90;;;;;;5033588;28;20919;-71
2022/07/21 04:22:56;;;;;;;12.67;9.80;;;19.70;99.90;;;;;;5032260;28;20508;-70
2022/07/21 04:25:22;;;;;;;11.97;10.53;;;19.80;99.90;;;;;;5033622;28;20495;-71
2022/07/21 04:27:49;;;;;;;14.20;10.07;;;19.80;99.90;;;;;;5033750;28;20636;-70
2022/07/21 04:30:20;;;;;;;13.20;11.13;;;19.80;99.90;;;;;;5033542;28;20445;-69
2022/07/21 04:32:46;;;;;;;11.90;10.30;;;19.80;99.90;;;;;;5032706;28;20425;-70
2022/07/21 04:35:13;;;;;;;14.00;10.73;;;19.90;99.90;;;;;;5031688;28;20467;-71
2022/07/21 04:37:39;;;;;;;13.90;10.97;;;19.90;99.90;;;;;;5032756;28;20424;-69
2022/07/21 04:40:07;;;;;;;13.40;11.50;;;19.90;99.90;;;;;;5032335;28;20420;-71
2022/07/21 04:42:33;;;;;;;13.20;10.17;;;20.00;99.90;;;;;;5030921;28;20424;-70
2022/07/21 04:44:59;;;;;;;12.47;10.23;;;20.00;99.90;;;;;;5030961;28;20507;-71
2022/07/21 04:47:24;;;;;;;11.03;9.80;;;20.10;99.90;;;;;;5032860;28;20905;-71
2022/07/21 04:49:50;;;;;;;12.10;10.37;;;20.20;99.90;;;;;;5033282;28;20687;-71
2022/07/21 04:52:15;;;;;;;13.40;10.17;;;20.30;99.90;;;;;;5032705;28;20178;-71
2022/07/21 04:54:41;;;;;;;11.77;9.90;;;20.30;99.90;;;;;;5033027;28;20198;-70
2022/07/21 04:57:07;;;;;;;15.77;10.70;;;20.30;99.90;;;;;;5031538;28;20277;-69
2022/07/21 04:59:34;;;;;;;15.33;12.40;;;20.30;99.90;;;;;;5031306;28;20266;-71
2022/07/21 05:02:00;;;;;;;14.80;10.60;;;20.20;99.90;;;;;;5030773;28;20182;-72
2022/07/21 05:04:26;;;;;;;12.17;9.93;;;20.20;99.90;;;;;;5030584;28;20474;-71
2022/07/21 05:06:52;;;;;;;11.97;9.80;;;20.20;99.90;;;;;;5030974;28;20464;-70
2022/07/21 05:09:18;;;;;;;14.30;9.50;;;20.20;99.90;;;;;;5031294;28;20223;-71
2022/07/21 05:11:43;;;;;;;12.23;10.93;;;20.30;99.90;;;;;;5031940;28;20405;-72
2022/07/21 05:14:09;;;;;;;10.53;9.50;;;20.30;99.90;;;;;;5031929;28;20205;-71
2022/07/21 05:16:35;;;;;;;11.07;9.23;;;20.30;99.90;;;;;;5033112;28;20299;-71
2022/07/21 05:19:00;;;;;;;14.40;11.40;;;20.30;99.90;;;;;;5032990;28;20182;-71
2022/07/21 05:21:26;;;;;;;13.93;11.97;;;20.30;99.90;;;;;;5032861;28;20181;-70
2022/07/21 05:23:52;;;;;;;11.57;10.37;;;20.40;99.90;;;;;;5032270;28;20202;-72
2022/07/21 05:26:17;;;;;;;11.77;8.77;;;20.40;99.90;;;;;;5031548;28;20300;-71
2022/07/21 05:28:43;;;;;;;11.80;9.70;;;20.40;99.90;;;;;;5033038;28;20268;-70
2022/07/21 05:31:10;;;;;;;14.10;10.73;;;20.50;99.90;;;;;;5033003;28;20174;-70
2022/07/21 05:33:36;;;;;;;13.23;11.50;;;20.50;99.90;;;;;;5030752;28;20205;-69
2022/07/21 05:36:03;;;;;;;14.00;10.47;;;20.70;99.90;;;;;;5031680;28;20912;-69
2022/07/21 05:38:29;;;;;;;15.77;11.00;;;20.90;99.90;;;;;;5033243;28;20387;-71
2022/07/21 05:40:54;;;;;;;12.40;10.60;;;21.00;99.90;;;;;;5032864;28;20409;-68
2022/07/21 05:43:20;;;;;;;11.07;9.87;;;21.20;99.90;;;;;;5031005;28;20229;-69
2022/07/21 05:45:45;;;;;;;15.57;10.67;;;21.30;99.90;;;;;;5032878;28;20729;-70
2022/07/21 05:48:11;;;;;;;11.80;9.63;;;21.40;99.90;;;;;;5033050;28;20174;-69
2022/07/21 05:50:37;;;;;;;10.80;9.70;;;21.60;99.90;;;;;;5030606;28;20202;-72
2022/07/21 05:53:02;;;;;;;10.20;9.20;;;21.80;99.90;;;;;;5032299;28;20525;-71
2022/07/21 05:55:28;;;;;;;11.63;9.87;;;22.10;99.90;;;;;;5032648;28;20222;-71
2022/07/21 05:57:54;;;;;;;11.80;10.60;;;22.20;99.90;;;;;;5032604;28;20176;-71
2022/07/21 06:00:19;;;;;;;9.73;8.70;;;22.20;99.90;;;;;;5031916;28;20196;-71
2022/07/21 06:02:45;;;;;;;10.90;9.77;;;22.20;99.90;;;;;;5030978;28;20659;-71
2022/07/21 06:05:11;;;;;;;11.23;9.20;;;22.20;99.90;;;;;;5033654;28;20212;-71
2022/07/21 06:07:38;;;;;;;10.97;9.73;;;22.20;99.90;;;;;;5036274;28;20953;-72
2022/07/21 06:10:04;;;;;;;12.57;11.27;;;22.20;99.90;;;;;;5035554;28;20177;-70
2022/07/21 06:12:30;;;;;;;14.40;11.80;;;22.30;99.90;;;;;;5035644;28;20789;-69
2022/07/21 06:14:55;;;;;;;10.77;9.70;;;22.50;99.90;;;;;;5035497;28;20437;-69
2022/07/21 06:17:22;;;;;;;9.63;8.63;;;22.60;99.90;;;;;;5035685;28;20185;-69
2022/07/21 06:19:48;;;;;;;9.50;8.50;;;22.50;99.90;;;;;;5036139;28;20579;-70
2022/07/21 06:22:13;;;;;;;9.57;8.57;;;22.50;99.90;;;;;;5024231;28;20426;-68
2022/07/21 06:24:39;;;;;;;13.03;11.70;;;22.70;99.90;;;;;;5034618;28;20206;-69
2022/07/21 06:27:05;;;;;;;11.00;8.90;;;22.90;99.90;;;;;;5034973;28;20333;-68
2022/07/21 06:29:30;;;;;;;11.23;10.13;;;22.90;99.90;;;;;;5035384;28;20178;-68
2022/07/21 06:31:56;;;;;;;10.97;9.87;;;22.90;99.90;;;;;;5035135;28;20195;-68
2022/07/21 06:34:22;;;;;;;9.60;8.60;;;22.90;99.90;;;;;;5034573;28;20205;-69
2022/07/21 06:36:47;;;;;;;11.20;9.30;;;23.10;99.90;;;;;;5035472;28;20550;-68
2022/07/21 06:39:13;;;;;;;9.80;8.50;;;23.20;99.90;;;;;;5026882;28;20193;-69
2022/07/21 06:41:39;;;;;;;10.30;7.80;;;23.20;99.90;;;;;;5035670;28;20174;-68
2022/07/21 06:44:05;;;;;;;12.10;8.63;;;23.30;99.90;;;;;;5034750;28;20198;-68
2022/07/21 06:46:33;;;;;;;8.57;7.77;;;23.40;99.90;;;;;;5035724;28;20419;-69
2022/07/21 06:48:58;;;;;;;9.70;8.73;;;23.30;99.90;;;;;;5035430;28;20416;-68
2022/07/21 06:51:24;;;;;;;8.40;7.40;;;23.30;99.90;;;;;;5034761;28;20459;-67
2022/07/21 06:53:50;;;;;;;8.97;7.73;;;23.30;99.90;;;;;;5035134;28;20194;-67
2022/07/21 06:56:17;;;;;;;10.03;7.97;;;23.10;99.90;;;;;;5035775;28;20590;-67
2022/07/21 06:58:43;;;;;;;10.70;7.07;;;23.10;99.90;;;;;;5034655;28;20527;-67
2022/07/21 07:01:08;;;;;;;8.03;7.30;;;23.10;99.90;;;;;;5034505;28;20403;-68
2022/07/21 07:03:34;;;;;;;9.83;8.00;;;23.10;99.90;;;;;;5034831;28;20218;-68
2022/07/21 07:06:00;;;;;;;16.73;12.50;;;23.10;99.90;;;;;;5034644;28;20227;-68
2022/07/21 07:08:26;;;;;;;9.70;8.70;;;23.30;99.90;;;;;;5035262;28;20440;-68
2022/07/21 07:10:51;;;;;;;8.30;7.60;;;23.50;99.90;;;;;;5034710;28;20178;-68
2022/07/21 07:13:17;;;;;;;7.47;6.77;;;23.70;99.90;;;;;;5034654;28;20461;-66
2022/07/21 07:15:44;;;;;;;7.20;6.50;;;24.00;99.90;;;;;;5033131;28;20220;-65
2022/07/21 07:18:10;;;;;;;8.20;7.40;;;24.00;99.90;;;;;;5014259;28;20464;-66
2022/07/21 07:20:36;;;;;;;8.77;6.60;;;24.10;99.90;;;;;;5015241;28;20410;-65
2022/07/21 07:23:02;;;;;;;6.53;5.70;;;24.20;99.90;;;;;;5014684;28;20319;-64
2022/07/21 07:25:28;;;;;;;8.27;7.60;;;24.00;99.90;;;;;;5015132;28;20947;-67
2022/07/21 07:27:55;;;;;;;7.03;6.33;;;24.20;99.90;;;;;;5032227;28;20539;-66
2022/07/21 07:30:20;;;;;;;7.80;7.13;;;24.30;99.90;;;;;;5034577;28;20210;-66
2022/07/21 07:32:49;;;;;;;7.70;6.73;;;24.40;99.90;;;;;;5034442;28;20806;-65
2022/07/21 07:35:15;;;;;;;8.10;7.37;;;24.50;99.90;;;;;;5034331;28;20203;-67
2022/07/21 07:37:43;;;;;;;8.20;7.27;;;24.80;99.90;;;;;;5034524;28;20450;-66
2022/07/21 07:40:14;;;;;;;7.33;6.63;;;25.10;99.90;;;;;;5034434;28;20425;-66
2022/07/21 07:42:40;;;;;;;6.50;6.00;;;25.30;99.90;;;;;;5034077;28;20748;-67
2022/07/21 07:45:07;;;;;;;6.63;6.00;;;25.30;99.90;;;;;;5033943;28;20421;-66
2022/07/21 07:47:33;;;;;;;6.33;5.73;;;25.60;99.90;;;;;;5034311;28;20173;-66
2022/07/21 07:49:59;;;;;;;6.03;5.53;;;26.50;99.90;;;;;;5034148;28;20807;-66
2022/07/21 07:52:25;;;;;;;7.30;6.63;;;27.80;99.90;;;;;;5033630;28;20275;-67
2022/07/21 07:54:50;;;;;;;10.13;9.13;;;29.30;99.90;;;;;;5034377;28;20214;-67
2022/07/21 07:57:16;;;;;;;7.77;6.93;;;29.90;99.90;;;;;;5034246;28;20409;-67
2022/07/21 07:59:42;;;;;;;7.00;6.40;;;30.60;99.00;;;;;;5034226;28;20178;-67
2022/07/21 08:02:08;;;;;;;6.97;6.37;;;31.50;95.60;;;;;;5033809;28;20174;-68
2022/07/21 08:04:35;;;;;;;6.43;5.93;;;32.30;93.80;;;;;;5033049;28;20464;-67
2022/07/21 08:07:01;;;;;;;7.30;6.80;;;33.00;94.10;;;;;;5033570;28;20183;-67
2022/07/21 08:09:26;;;;;;;6.70;6.20;;;33.60;91.00;;;;;;5033658;28;20432;-68
2022/07/21 08:11:52;;;;;;;6.33;5.63;;;34.20;87.10;;;;;;5033805;28;20424;-69
2022/07/21 08:14:19;;;;;;;6.30;5.87;;;34.40;87.40;;;;;;5033468;28;20638;-68
2022/07/21 08:16:45;;;;;;;7.97;7.37;;;34.60;87.20;;;;;;5034730;28;20521;-69
2022/07/21 08:19:12;;;;;;;7.00;6.40;;;;;;;;;;5033986;28;20186;-69
2022/07/21 08:21:38;;;;;;;6.47;5.97;;;34.70;88.40;;;;;;5033463;28;20421;-68
2022/07/21 08:24:04;;;;;;;6.20;5.70;;;33.60;86.50;;;;;;5033108;28;20852;-69
2022/07/21 08:26:30;;;;;;;6.53;6.03;;;32.60;89.30;;;;;;5033708;28;20523;-68
2022/07/21 08:28:56;;;;;;;7.70;7.10;;;32.10;90.50;;;;;;5033615;28;20487;-68
2022/07/21 08:31:23;;;;;;;6.97;6.37;;;32.40;90.60;;;;;;5032233;28;20205;-67
2022/07/21 08:33:50;;;;;;;6.43;5.93;;;32.40;88.00;;;;;;5032833;28;20407;-68
2022/07/21 08:36:17;;;;;;;6.90;6.40;;;32.00;90.60;;;;;;5033697;28;20411;-68
2022/07/21 08:38:43;;;;;;;7.13;6.53;;;32.40;90.00;;;;;;5033705;28;20803;-68
2022/07/21 08:41:08;;;;;;;5.30;4.73;;;32.70;88.00;;;;;;5033467;28;20432;-68
2022/07/21 08:43:35;;;;;;;6.43;5.93;;;32.50;87.70;;;;;;5032009;28;20193;-69
2022/07/21 08:46:02;;;;;;;6.67;5.90;;;32.30;88.80;;;;;;5030340;28;20549;-68
2022/07/21 08:48:29;;;;;;;6.83;5.60;;;31.70;88.80;;;;;;5030624;28;20422;-68
2022/07/21 08:50:55;;;;;;;6.83;6.27;;;31.10;89.30;;;;;;5033342;28;20435;-67
2022/07/21 08:53:22;;;;;;;6.80;6.20;;;30.30;90.70;;;;;;5033025;28;20785;-69
2022/07/21 08:55:48;;;;;;;7.97;6.80;;;29.40;92.00;;;;;;5032251;28;20442;-70
2022/07/21 08:58:14;;;;;;;6.13;5.53;;;28.80;93.50;;;;;;5033019;28;20421;-69
2022/07/21 09:00:43;;;;;;;6.30;5.70;;;28.30;94.30;;;;;;5033065;28;20178;-70
2022/07/21 09:03:21;;;;;;;6.23;5.63;;;27.80;94.90;;;;;;5032773;28;20458;-71
2022/07/21 09:06:00;;;;;;;5.90;5.40;;;27.60;96.70;;;;;;5032930;28;20459;-70
2022/07/21 09:08:50;;;;;;;6.67;6.10;;;27.70;96.00;;;;;;5032941;28;20402;-70
2022/07/21 09:11:23;;;;;;;6.50;5.90;;;28.00;95.50;;;;;;5032104;28;20396;-70
2022/07/21 09:14:10;;;;;;;9.60;6.70;;;28.40;94.90;;;;;;5031771;28;20939;-71
2022/07/21 09:16:39;;;;;;;6.03;5.57;;;28.50;94.90;;;;;;5033172;28;20895;-70
2022/07/21 09:19:14;;;;;;;6.33;5.73;;;28.40;95.10;;;;;;5031955;28;20430;-71
2022/07/21 09:21:40;;;;;;;5.80;5.37;;;28.70;95.70;;;;;;5033326;28;20375;-68
2022/07/21 09:24:25;;;;;;;6.70;6.20;;;29.50;94.30;;;;;;5032528;28;20418;-69
2022/07/21 09:26:58;;;;;;;6.50;5.90;;;30.50;92.60;;;;;;5032975;28;20170;-70
2022/07/21 09:29:24;;;;;;;5.73;5.17;;;31.80;92.50;;;;;;5032618;28;20482;-68
2022/07/21 09:31:50;;;;;;;6.37;5.87;;;33.10;88.00;;;;;;5033148;28;20401;-70
2022/07/21 09:34:17;;;;;;;6.03;5.63;;;34.20;85.70;;;;;;5032621;28;20471;-70
2022/07/21 09:37:04;;;;;;;5.97;5.57;;;35.20;84.80;;;;;;5031875;28;20648;-68
2022/07/21 09:39:47;;;;;;;5.77;5.30;;;35.70;80.30;;;;;;5032581;28;20405;-70
2022/07/21 09:42:15;;;;;;;5.80;5.40;;;35.30;79.90;;;;;;5015658;28;20504;-71
2022/07/21 09:44:43;;;;;;;6.90;6.37;;;34.70;78.10;;;;;;5015724;28;20960;-70
2022/07/21 09:47:14;;;;;;;6.20;5.70;;;34.00;79.30;;;;;;5017232;28;20434;-71
2022/07/21 09:49:40;;;;;;;5.50;5.10;;;33.70;81.10;;;;;;5035494;28;20432;-70
2022/07/21 09:52:19;;;;;;;5.47;5.00;;;33.90;76.20;;;;;;5036298;28;20399;-71
2022/07/21 09:54:45;;;;;;;5.73;5.30;;;33.30;77.90;;;;;;5036422;28;20530;-70
2022/07/21 09:57:11;;;;;;;5.47;5.03;;;32.80;79.70;;;;;;5036841;28;20412;-69
2022/07/21 09:59:39;;;;;;;5.80;5.40;;;32.60;81.40;;;;;;5036515;28;20526;-70
2022/07/21 10:02:05;;;;;;;5.33;4.83;;;32.60;79.40;;;;;;5035233;28;20421;-71
2022/07/21 10:04:34;;;;;;;5.50;4.83;;;32.40;80.70;;;;;;5035946;28;20431;-70
2022/07/21 10:07:01;;;;;;;5.43;5.00;;;32.10;79.40;;;;;;5036302;28;20868;-71
2022/07/21 10:09:27;;;;;;;7.23;5.07;;;32.30;81.00;;;;;;5036329;28;20866;-69
2022/07/21 10:11:54;;;;;;;4.80;4.30;;;32.80;78.00;;;;;;5036375;28;20411;-71
2022/07/21 10:14:19;;;;;;;5.57;5.07;;;33.00;79.10;;;;;;5035816;28;20488;-70
2022/07/21 10:16:45;;;;;;;4.50;4.20;;;32.90;77.50;;;;;;5036076;28;20895;-70
2022/07/21 10:19:27;;;;;;;4.40;4.10;;;32.80;78.00;;;;;;5036063;28;20209;-70
2022/07/21 10:22:12;;;;;;;4.43;4.03;;;32.70;76.60;;;;;;5035730;28;20245;-69
2022/07/21 10:24:38;;;;;;;4.93;4.53;;;33.10;77.90;;;;;;5024816;28;20951;-71
2022/07/21 10:27:09;;;;;;;4.97;4.67;;;33.70;76.00;;;;;;5035493;28;20770;-71
2022/07/21 10:29:54;;;;;;;6.83;4.83;;;34.40;76.50;;;;;;5034562;28;20417;-70
2022/07/21 10:32:27;;;;;;;4.90;4.50;;;35.00;73.40;;;;;;5033878;28;20427;-70
2022/07/21 10:34:54;;;;;;;5.07;4.67;;;35.20;71.70;;;;;;5033768;28;20440;-71
2022/07/21 10:37:38;;;;;;;5.07;4.67;;;34.70;72.50;;;;;;5035021;28;20816;-69
2022/07/21 10:40:05;;;;;;;5.90;5.40;;;34.00;72.10;;;;;;5036110;28;20417;-70
2022/07/21 10:42:31;;;;;;;5.67;5.17;;;33.10;73.30;;;;;;5035298;28;20467;-70
2022/07/21 10:44:57;;;;;;;5.50;5.00;;;31.90;77.00;;;;;;5035879;28;20795;-70
2022/07/21 10:47:30;;;;;;;5.93;5.43;;;31.10;78.30;;;;;;5034430;28;20206;-70
2022/07/21 10:49:58;;;;;;;4.87;4.47;;;30.60;80.30;;;;;;5035735;28;20870;-70
2022/07/21 10:52:35;;;;;;;4.60;4.30;;;30.70;80.80;;;;;;5034314;28;20459;-69
2022/07/21 10:55:10;;;;;;;5.40;5.00;;;31.00;79.60;;;;;;5035114;28;20485;-70
2022/07/21 10:57:38;;;;;;;5.43;4.93;;;31.40;80.50;;;;;;5034002;28;20416;-70
2022/07/21 11:00:24;;;;;;;5.73;5.23;;;31.70;79.60;;;;;;5035322;28;20368;-70
2022/07/21 11:03:30;;;;;;;6.10;5.70;;;32.00;78.80;;;;;;5035023;28;20493;-70
2022/07/21 11:06:23;;;;;;;5.77;5.27;;;32.20;77.70;;;;;;5033534;28;22136;-70
2022/07/21 11:08:50;;;;;;;5.27;4.87;;;32.30;76.70;;;;;;5035268;28;20401;-69
2022/07/21 11:11:25;;;;;;;4.87;4.53;;;32.40;77.30;;;;;;5034981;28;20420;-68
2022/07/21 11:14:03;;;;;;;4.83;4.43;;;32.80;77.10;;;;;;5034829;28;20482;-70
2022/07/21 11:16:49;;;;;;;5.30;4.90;;;33.30;74.10;;;;;;5034912;28;20392;-70
2022/07/21 11:19:39;;;;;;;5.33;4.93;;;33.10;74.30;;;;;;5035177;28;20398;-69
2022/07/21 11:22:17;;;;;;;4.50;4.20;;;32.60;73.50;;;;;;5035060;28;20397;-74
2022/07/21 11:25:04;;;;;;;4.80;4.40;;;32.10;77.20;;;;;;5034839;28;20931;-71
2022/07/21 11:27:34;;;;;;;4.53;4.17;;;31.40;75.40;;;;;;5034745;28;20446;-68
2022/07/21 11:30:04;;;;;;;5.57;5.10;;;30.70;76.10;;;;;;5034793;28;20398;-68
2022/07/21 11:32:30;;;;;;;5.43;4.93;;;30.30;80.00;;;;;;5034721;28;20391;-69
2022/07/21 11:34:57;;;;;;;5.33;4.90;;;29.90;79.30;;;;;;5034773;28;20448;-68
2022/07/21 11:37:30;;;;;;;4.77;4.30;;;29.70;80.80;;;;;;5034281;28;20653;-68
2022/07/21 11:39:56;;;;;;;4.57;4.27;;;29.50;82.30;;;;;;5034594;28;20967;-64
2022/07/21 11:42:22;;;;;;;4.17;3.80;;;29.40;83.00;;;;;;5034731;28;20426;-69
2022/07/21 11:44:47;;;;;;;5.60;5.10;;;29.30;79.30;;;;;;5034698;28;20404;-67
2022/07/21 11:47:15;;;;;;;6.80;4.83;;;29.20;81.10;;;;;;5033307;28;20463;-66
2022/07/21 11:49:42;;;;;;;4.47;4.10;;;29.20;78.50;;;;;;5033733;28;20589;-65
2022/07/21 11:52:11;;;;;;;4.20;3.80;;;29.20;80.30;;;;;;5033608;28;20431;-65
2022/07/21 11:54:48;;;;;;;3.87;3.57;;;29.20;79.50;;;;;;5033079;28;20455;-66
2022/07/21 11:57:16;;;;;;;4.10;3.80;;;29.20;78.00;;;;;;5034468;28;20748;-67
2022/07/21 11:59:43;;;;;;;4.40;4.00;;;29.20;78.20;;;;;;5034337;28;20432;-66
2022/07/21 12:02:11;;;;;;;4.23;3.93;;;28.90;81.40;;;;;;5033121;28;20914;-66
2022/07/21 12:04:47;;;;;;;3.90;3.60;;;28.80;82.80;;;;;;5032876;28;20799;-66
2022/07/21 12:07:26;;;;;;;6.50;5.90;;;28.50;83.80;;;;;;5034401;28;20391;-67
2022/07/21 12:10:04;;;;;;;4.93;3.87;;;28.30;85.70;;;;;;5033973;28;20403;-66
2022/07/21 12:12:39;;;;;;;4.03;3.73;;;28.40;85.60;;;;;;5033945;28;20492;-65
2022/07/21 12:15:16;;;;;;;4.40;4.10;;;28.40;86.10;;;;;;5033278;28;20456;-65
2022/07/21 12:17:50;;;;;;;4.10;3.70;;;28.30;81.00;;;;;;5034051;28;20387;-66
2022/07/21 12:20:25;;;;;;;3.73;3.43;;;28.40;80.00;;;;;;5034054;28;20420;-67
2022/07/21 12:22:51;;;;;;;4.23;3.83;;;28.70;80.40;;;;;;5033680;28;20387;-66
2022/07/21 12:25:29;;;;;;;4.30;4.00;;;28.90;81.10;;;;;;5033773;28;20392;-66
2022/07/21 12:27:56;;;;;;;4.00;3.70;;;29.00;83.50;;;;;;5033627;28;20182;-66
2022/07/21 12:30:40;;;;;;;4.47;4.13;;;29.10;81.60;;;;;;5033517;28;20502;-65
2022/07/21 12:33:17;;;;;;;4.60;4.20;;;29.10;78.40;;;;;;5033016;28;20571;-67
2022/07/21 12:35:48;;;;;;;6.37;5.77;;;29.40;82.80;;;;;;5033430;28;20505;-65
2022/07/21 12:38:16;;;;;;;4.57;4.17;;;29.50;79.90;;;;;;5033534;28;20387;-66
2022/07/21 12:40:52;;;;;;;4.83;4.43;;;29.60;77.80;;;;;;5033234;28;20421;-64
2022/07/21 12:43:20;;;;;;;4.40;4.10;;;29.50;78.90;;;;;;5032951;28;20437;-65
2022/07/21 12:45:56;;;;;;;6.00;4.57;;;29.60;78.80;;;;;;5033434;28;20787;-65
2022/07/21 12:48:27;;;;;;;5.03;4.40;;;29.60;81.90;;;;;;5033620;28;20409;-66
2022/07/21 12:51:10;;;;;;;5.40;5.00;;;29.70;79.40;;;;;;5033176;28;20483;-65
2022/07/21 12:53:47;;;;;;;5.47;5.07;;;29.60;81.80;;;;;;5032981;28;20494;-65
2022/07/21 12:56:15;;;;;;;4.33;3.63;;;29.50;81.10;;;;;;5033354;28;20771;-66
2022/07/21 12:58:41;;;;;;;5.40;4.90;;;29.30;81.60;;;;;;5033178;28;20417;-65
2022/07/21 13:01:07;;;;;;;4.60;4.20;;;29.20;83.60;;;;;;5033117;28;20391;-66
2022/07/21 13:03:34;;;;;;;5.87;5.37;;;29.20;82.50;;;;;;5032464;28;20546;-66
2022/07/21 13:06:01;;;;;;;5.03;4.63;;;29.30;82.70;;;;;;5032520;28;20201;-66
2022/07/21 13:08:27;;;;;;;5.30;4.90;;;29.40;84.00;;;;;;5033195;28;20424;-65
2022/07/21 13:10:53;;;;;;;5.60;5.10;;;29.40;82.50;;;;;;5033529;28;20721;-65
2022/07/21 13:13:19;;;;;;;6.03;5.63;;;29.30;81.50;;;;;;5031895;28;20455;-66
2022/07/21 13:15:45;;;;;;;5.50;5.00;;;29.00;80.80;;;;;;5031488;28;20435;-65
2022/07/21 13:18:10;;;;;;;4.87;4.47;;;28.80;80.70;;;;;;5033127;28;20166;-65
2022/07/21 13:20:36;;;;;;;4.90;4.50;;;28.70;83.00;;;;;;5033197;28;20641;-65
2022/07/21 13:23:02;;;;;;;6.30;5.70;;;28.70;83.30;;;;;;5032131;28;20224;-66
2022/07/21 13:25:28;;;;;;;5.10;4.70;;;28.70;84.10;;;;;;5033332;28;20235;-65
2022/07/21 13:27:53;;;;;;;5.50;5.10;;;28.70;83.90;;;;;;5032846;28;20572;-65
2022/07/21 13:30:19;;;;;;;5.93;5.43;;;28.60;82.90;;;;;;5033200;28;20181;-64
2022/07/21 13:32:45;;;;;;;6.17;5.60;;;28.70;83.90;;;;;;5032837;28;20186;-66
2022/07/21 13:35:13;;;;;;;5.50;5.00;;;28.70;82.30;;;;;;5032777;28;20977;-66
2022/07/21 13:37:39;;;;;;;6.40;5.13;;;28.70;83.60;;;;;;5032720;28;20251;-66
2022/07/21 13:40:05;;;;;;;4.80;4.40;;;28.80;82.90;;;;;;5032910;28;20436;-66
2022/07/21 13:42:31;;;;;;;5.90;5.37;;;28.80;82.40;;;;;;5031388;28;20773;-65
2022/07/21 13:44:56;;;;;;;6.03;5.53;;;28.80;82.10;;;;;;5032494;28;20479;-65
2022/07/21 13:47:22;;;;;;;5.07;4.57;;;28.80;81.80;;;;;;5033029;28;20231;-65
2022/07/21 13:49:48;;;;;;;5.53;5.03;;;28.80;80.60;;;;;;5032814;28;20186;-65
2022/07/21 13:52:13;;;;;;;5.40;4.90;;;28.80;81.50;;;;;;5032094;28;20186;-65
2022/07/21 13:54:39;;;;;;;5.93;5.33;;;28.90;82.80;;;;;;5032374;28;20248;-65
2022/07/21 13:57:05;;;;;;;5.27;4.77;;;29.00;81.80;;;;;;5032889;28;20192;-65
2022/07/21 13:59:31;;;;;;;5.20;4.73;;;29.20;81.40;;;;;;5032600;28;20174;-65
2022/07/21 14:01:56;;;;;;;5.20;4.23;;;29.20;81.60;;;;;;5032674;28;20174;-65
2022/07/21 14:04:23;;;;;;;5.17;4.77;;;29.30;81.90;;;;;;5032266;28;20300;-64
2022/07/21 14:06:49;;;;;;;5.20;4.70;;;29.30;80.50;;;;;;5032571;28;20228;-64
2022/07/21 14:09:15;;;;;;;5.00;4.63;;;29.40;81.00;;;;;;5031642;28;20425;-66
2022/07/21 14:11:42;;;;;;;4.93;4.53;;;29.40;79.00;;;;;;5032580;28;20174;-66
2022/07/21 14:14:07;;;;;;;4.20;3.90;;;29.40;80.50;;;;;;5031375;28;20502;-65
2022/07/21 14:16:33;;;;;;;4.33;4.03;;;29.40;79.20;;;;;;5032463;28;20421;-66
2022/07/21 14:19:00;;;;;;;4.53;4.20;;;29.30;77.30;;;;;;5032423;28;20185;-65
2022/07/21 14:21:26;;;;;;;5.33;4.30;;;29.20;77.90;;;;;;5031372;28;20174;-65
2022/07/21 14:25:18;;;;;;;4.10;3.80;;;29.00;77.00;;;;;;5031542;28;20805;-65
2022/07/21 14:26:38;;;;;;;4.13;3.73;;;28.90;76.80;;;;;;5033677;28;20166;-65
2022/07/21 14:29:05;;;;;;;4.20;3.80;;;28.80;78.00;;;;;;5035876;28;20413;-65
2022/07/21 14:31:31;;;;;;;3.60;3.30;;;28.70;78.30;;;;;;5035947;28;20220;-65
2022/07/21 14:33:57;;;;;;;4.70;4.30;;;28.70;78.10;;;;;;5035325;28;20403;-65
2022/07/21 14:36:22;;;;;;;4.73;4.33;;;28.70;76.70;;;;;;5036071;28;20285;-66
2022/07/21 14:38:48;;;;;;;3.83;3.53;;;28.70;76.80;;;;;;5035303;28;20211;-65
2022/07/21 14:41:13;;;;;;;4.80;4.40;;;28.70;75.30;;;;;;5035722;28;20212;-65
2022/07/21 14:43:39;;;;;;;4.70;4.30;;;28.70;76.50;;;;;;5035351;28;20204;-65
2022/07/21 14:46:05;;;;;;;3.93;3.63;;;28.80;77.30;;;;;;5035777;28;20173;-64
2022/07/21 14:48:30;;;;;;;4.00;3.70;;;28.90;78.10;;;;;;5035762;28;20180;-65
2022/07/21 14:50:56;;;;;;;4.43;4.03;;;29.00;77.10;;;;;;5035648;28;20275;-65
2022/07/21 14:53:21;;;;;;;5.47;3.50;;;29.10;76.90;;;;;;5034687;28;20197;-65
2022/07/21 14:55:47;;;;;;;9.93;3.67;;;29.10;75.00;;;;;;5031273;28;20205;-65
2022/07/21 14:58:13;;;;;;;4.73;4.33;;;29.10;74.50;;;;;;5035680;28;20637;-65
2022/07/21 15:00:38;;;;;;;4.20;3.90;;;29.00;75.20;;;;;;5035920;28;20180;-65
2022/07/21 15:03:04;;;;;;;4.77;4.33;;;29.00;76.60;;;;;;5034580;28;20170;-65
2022/07/21 15:05:29;;;;;;;4.47;3.77;;;29.10;75.80;;;;;;5035127;28;20200;-65
2022/07/21 15:07:55;;;;;;;3.73;3.43;;;29.10;75.60;;;;;;5034818;28;20185;-65
2022/07/21 15:10:21;;;;;;;4.73;4.33;;;29.10;74.90;;;;;;5033942;28;20177;-65
2022/07/21 15:12:47;;;;;;;4.03;3.70;;;29.00;75.90;;;;;;5034753;28;20177;-65
2022/07/21 15:15:12;;;;;;;3.67;3.37;;;28.80;75.20;;;;;;5035042;28;20215;-65
2022/07/21 15:17:38;;;;;;;3.63;3.43;;;28.70;77.20;;;;;;5034899;28;20294;-64
2022/07/21 15:20:05;;;;;;;3.23;3.03;;;28.60;77.60;;;;;;5033906;28;20232;-65
2022/07/21 15:22:31;;;;;;;4.30;4.00;;;28.50;77.70;;;;;;5034345;28;20453;-65
2022/07/21 15:24:58;;;;;;;4.50;4.10;;;28.40;77.40;;;;;;5034898;28;20450;-65
2022/07/21 15:27:24;;;;;;;3.60;3.30;;;28.40;77.30;;;;;;5035142;28;20420;-65
2022/07/21 15:29:49;;;;;;;3.97;3.60;;;28.40;77.80;;;;;;5035080;28;20394;-65
2022/07/21 15:32:15;;;;;;;4.70;4.30;;;28.50;78.50;;;;;;5034433;28;20458;-64
2022/07/21 15:34:41;;;;;;;3.80;3.60;;;28.60;78.80;;;;;;5034257;28;20243;-65
2022/07/21 15:37:06;;;;;;;3.70;3.40;;;28.60;76.70;;;;;;5033943;28;20173;-65
2022/07/21 15:39:33;;;;;;;3.93;3.70;;;28.60;77.40;;;;;;5034288;28;20180;-65
2022/07/21 15:41:58;;;;;;;3.80;3.47;;;28.50;78.10;;;;;;5034692;28;20185;-65
2022/07/21 15:44:24;;;;;;;3.30;3.10;;;28.50;77.00;;;;;;5034448;28;20401;-65
2022/07/21 15:46:51;;;;;;;4.20;3.90;;;28.30;77.50;;;;;;5034828;28;20635;-65
2022/07/21 15:49:18;;;;;;;4.00;3.70;;;28.20;78.60;;;;;;5034661;28;20660;-64
2022/07/21 15:51:45;;;;;;;4.53;4.13;;;28.10;78.30;;;;;;5033022;28;20928;-64
2022/07/21 15:54:11;;;;;;;4.00;3.50;;;28.00;78.10;;;;;;5032485;28;20422;-64
2022/07/21 15:56:36;;;;;;;4.00;3.70;;;28.00;77.80;;;;;;5034644;28;20436;-64
2022/07/21 16:01:46;;;;;;;4.30;3.90;;;27.90;78.60;;;;;;5034897;28;20237;-65
2022/07/21 16:04:12;;;;;;;4.37;3.97;;;27.90;79.10;;;;;;5033673;28;20493;-64
2022/07/21 16:06:37;;;;;;;4.90;4.40;;;27.90;79.50;;;;;;5034431;28;20181;-65
2022/07/21 16:09:04;;;;;;;4.80;4.30;;;27.90;79.10;;;;;;5034264;28;20189;-64
2022/07/21 16:11:30;;;;;;;4.07;3.67;;;27.80;79.40;;;;;;5033724;28;20568;-65
2022/07/21 16:13:56;;;;;;;3.40;3.10;;;27.90;79.20;;;;;;5033352;28;20838;-64
2022/07/21 16:16:21;;;;;;;4.37;3.97;;;28.00;79.20;;;;;;5033631;28;20452;-65
2022/07/21 16:18:47;;;;;;;4.03;3.63;;;28.10;77.30;;;;;;5033743;28;20294;-63
2022/07/21 16:21:13;;;;;;;3.60;3.40;;;28.10;76.20;;;;;;5033379;28;20180;-65
2022/07/21 16:23:38;;;;;;;3.60;3.30;;;28.10;76.70;;;;;;5032692;28;20207;-65
2022/07/21 16:26:04;;;;;;;3.87;3.47;;;28.10;75.00;;;;;;5033938;28;20179;-64
2022/07/21 16:28:30;;;;;;;3.40;3.07;;;28.00;75.40;;;;;;5033924;28;20639;-65
2022/07/21 16:30:56;;;;;;;3.80;3.50;;;28.00;75.50;;;;;;5032892;28;20210;-65
2022/07/21 16:33:22;;;;;;;4.07;3.70;;;27.90;76.20;;;;;;5032816;28;20240;-64
2022/07/21 16:35:47;;;;;;;3.07;2.83;;;27.90;76.90;;;;;;5033609;28;20208;-66
2022/07/21 16:38:13;;;;;;;3.20;3.00;;;27.80;76.40;;;;;;5033663;28;20478;-65
2022/07/21 16:40:38;;;;;;;3.60;3.30;;;27.80;76.30;;;;;;5033870;28;20176;-65
2022/07/21 16:43:04;;;;;;;3.50;3.20;;;27.80;75.90;;;;;;5032942;28;20256;-66
2022/07/21 16:45:30;;;;;;;4.00;3.70;;;27.80;76.50;;;;;;5033541;28;20190;-63
2022/07/21 16:47:55;;;;;;;3.83;3.53;;;27.70;76.80;;;;;;5033841;28;20175;-63
2022/07/21 16:50:21;;;;;;;3.73;3.43;;;27.60;78.00;;;;;;5032503;28;20237;-65
2022/07/21 16:52:47;;;;;;;3.87;3.53;;;27.50;79.20;;;;;;5033318;28;20185;-64